Terminal Aerodrome Forecast
Issued by NWS

Home | Current Version | Previous Version | Text Only | Print | Product List | Glossary On
Versions: 1 2 3 4 5 6 7 8 9 10 11 12 13 14 15 16
285
FTUS46 KMFR 232015 AAA
TAFLMT
TAF AMD
KLMT 232015Z 2320/2418 25015G22KT P6SM VCSH BKN040 OVC080
     FM240600 25009KT P6SM -SHRA OVC025
     FM241700 26006KT P6SM BKN035=

USA.gov is the U.S. government's official web portal to all federal, state and local government web resources and services.